createdAt,value
2019-03-20T00:00:46.175Z,53.60
2019-03-20T00:03:46.632Z,53.40
2019-03-20T00:07:12.869Z,53.50
2019-03-20T00:09:37.655Z,53.50
2019-03-20T00:20:07.059Z,53.80
2019-03-20T00:23:06.849Z,53.80
2019-03-20T00:26:06.180Z,53.70
2019-03-20T00:29:04.583Z,53.70
2019-03-20T00:35:34.251Z,53.80
2019-03-20T00:38:45.942Z,53.70
2019-03-20T00:41:40.274Z,53.80
2019-03-20T00:44:36.851Z,53.80
2019-03-20T00:47:29.592Z,54.00
2019-03-20T00:50:22.678Z,53.70
2019-03-20T00:53:15.581Z,53.70
2019-03-20T00:56:09.342Z,53.80
2019-03-20T00:59:05.523Z,53.80
2019-03-20T01:02:00.245Z,54.00
2019-03-20T01:04:53.173Z,54.00
2019-03-20T01:07:45.841Z,54.30
2019-03-20T01:10:41.692Z,54.40
2019-03-20T01:13:34.892Z,54.10
2019-03-20T01:16:31.404Z,54.10
2019-03-20T01:19:25.047Z,54.00
2019-03-20T01:22:18.174Z,53.80
2019-03-20T01:25:13.151Z,53.80
2019-03-20T01:28:06.250Z,53.70
2019-03-20T01:30:58.675Z,54.00
2019-03-20T01:33:51.732Z,53.90
2019-03-20T01:36:44.985Z,53.90
2019-03-20T01:39:41.964Z,53.80
2019-03-20T01:42:34.447Z,53.70
2019-03-20T01:45:28.147Z,53.60
2019-03-20T01:48:21.073Z,53.60
2019-03-20T01:51:20.801Z,53.60
2019-03-20T01:54:13.736Z,54.00
2019-03-20T01:57:09.369Z,53.80
2019-03-20T02:00:05.558Z,53.70
2019-03-20T02:02:58.005Z,54.00
2019-03-20T02:05:50.998Z,54.10
2019-03-20T02:08:44.438Z,54.20
2019-03-20T02:11:37.890Z,54.20
2019-03-20T02:14:31.360Z,54.20
2019-03-20T02:17:25.348Z,54.20
2019-03-20T02:20:19.151Z,54.10
2019-03-20T02:23:11.639Z,54.10
2019-03-20T02:26:08.155Z,54.00
2019-03-20T02:29:00.459Z,54.00
2019-03-20T02:31:55.407Z,54.00
2019-03-20T02:34:48.920Z,53.90
2019-03-20T02:37:42.689Z,53.90
2019-03-20T02:40:35.941Z,53.90
2019-03-20T02:43:47.187Z,54.10
2019-03-20T02:46:54.887Z,54.00
2019-03-20T02:49:50.923Z,53.90
2019-03-20T02:52:46.421Z,53.90
2019-03-20T02:55:39.950Z,53.90
2019-03-20T02:58:39.771Z,53.90
2019-03-20T03:01:42.336Z,53.90
2019-03-20T03:04:41.326Z,53.80
2019-03-20T03:07:34.777Z,53.80
2019-03-20T03:10:30.613Z,53.80
2019-03-20T03:13:42.630Z,53.80
2019-03-20T03:16:40.906Z,53.90
2019-03-20T03:19:43.420Z,53.80
2019-03-20T03:23:26.527Z,53.80
2019-03-20T03:26:38.043Z,53.80
2019-03-20T03:29:35.243Z,53.80
2019-03-20T03:32:29.369Z,53.80
2019-03-20T03:35:21.747Z,55.60
2019-03-20T03:38:14.527Z,54.40
2019-03-20T03:41:07.233Z,54.30
2019-03-20T03:44:02.590Z,54.40
2019-03-20T03:46:57.906Z,54.20
2019-03-20T03:49:52.350Z,54.20
2019-03-20T03:52:46.602Z,54.10
2019-03-20T03:55:43.514Z,54.10
2019-03-20T03:58:37.368Z,54.40
2019-03-20T04:01:31.008Z,54.60
2019-03-20T04:04:27.038Z,54.70
2019-03-20T04:07:19.134Z,54.90
2019-03-20T04:10:14.821Z,54.80
2019-03-20T04:13:12.027Z,54.80
2019-03-20T04:16:05.067Z,54.90
2019-03-20T04:18:58.496Z,54.80
2019-03-20T04:21:52.375Z,54.80
2019-03-20T04:24:45.484Z,54.90
2019-03-20T04:27:45.428Z,55.00
2019-03-20T04:30:40.233Z,55.10
2019-03-20T04:33:33.681Z,57.50
2019-03-20T04:36:26.148Z,58.10
2019-03-20T04:39:19.441Z,57.60
2019-03-20T04:42:13.127Z,57.20
2019-03-20T04:45:06.352Z,56.70
2019-03-20T04:48:02.395Z,56.40
2019-03-20T04:50:56.944Z,56.20
2019-03-20T04:53:50.565Z,56.00
2019-03-20T04:56:43.794Z,56.00
2019-03-20T04:59:38.097Z,56.00
2019-03-20T05:02:33.455Z,55.70
2019-03-20T05:05:27.670Z,55.60
2019-03-20T05:08:20.210Z,55.50
2019-03-20T05:11:13.593Z,55.60
2019-03-20T05:14:07.907Z,55.60
2019-03-20T05:17:04.137Z,55.60
2019-03-20T05:19:57.485Z,55.50
2019-03-20T05:22:51.942Z,56.20
2019-03-20T05:25:46.378Z,55.60
2019-03-20T05:28:41.118Z,55.90
2019-03-20T05:31:36.818Z,55.80
2019-03-20T05:34:31.361Z,55.70
2019-03-20T05:37:27.272Z,55.50
2019-03-20T05:40:23.965Z,55.60
2019-03-20T05:43:21.633Z,55.50
2019-03-20T05:46:14.801Z,55.40
2019-03-20T05:49:12.123Z,55.00
2019-03-20T05:52:05.763Z,55.00
2019-03-20T05:55:01.892Z,55.00
2019-03-20T05:58:02.358Z,54.90
2019-03-20T06:00:56.259Z,55.40
2019-03-20T06:03:52.050Z,54.60
2019-03-20T06:06:45.728Z,54.40
2019-03-20T06:09:39.061Z,54.40
2019-03-20T06:12:33.057Z,54.20
2019-03-20T06:15:30.189Z,54.00
2019-03-20T06:18:26.597Z,53.90
2019-03-20T06:21:19.244Z,53.90
2019-03-20T06:24:16.193Z,53.80
2019-03-20T06:27:18.279Z,53.70
2019-03-20T06:30:15.734Z,53.50
2019-03-20T06:33:12.151Z,53.40
2019-03-20T06:36:06.298Z,53.20
2019-03-20T06:38:59.062Z,53.00
2019-03-20T06:41:56.447Z,53.10
2019-03-20T06:44:51.527Z,52.80
2019-03-20T06:47:59.346Z,52.60
2019-03-20T06:50:53.610Z,52.70
2019-03-20T06:53:53.994Z,52.80
2019-03-20T06:56:47.205Z,52.70
2019-03-20T06:59:49.694Z,52.60
2019-03-20T07:02:47.959Z,52.60
2019-03-20T07:09:26.987Z,52.60
2019-03-20T07:12:22.337Z,52.50
2019-03-20T07:15:20.328Z,52.40
2019-03-20T07:18:16.654Z,52.20
2019-03-20T07:21:18.846Z,52.00
2019-03-20T07:27:37.237Z,52.10
2019-03-20T07:30:31.826Z,52.10
2019-03-20T07:33:28.788Z,52.20
2019-03-20T07:36:25.574Z,52.20
2019-03-20T07:39:19.638Z,52.30
2019-03-20T07:42:13.479Z,52.10
2019-03-20T07:45:09.245Z,52.20
2019-03-20T07:48:05.043Z,52.30
2019-03-20T07:51:01.652Z,52.40
2019-03-20T07:53:59.412Z,52.40
2019-03-20T07:56:52.567Z,52.70
2019-03-20T07:59:45.911Z,52.20
2019-03-20T08:02:38.820Z,52.20
2019-03-20T08:05:33.355Z,52.10
2019-03-20T08:08:30.558Z,52.00
2019-03-20T08:11:28.171Z,52.00
2019-03-20T08:14:24.035Z,52.20
2019-03-20T08:17:21.604Z,52.10
2019-03-20T08:20:23.182Z,52.10
2019-03-20T08:23:19.241Z,52.00
2019-03-20T08:26:10.617Z,51.90
2019-03-20T08:29:03.574Z,51.40
2019-03-20T08:31:56.617Z,51.40
2019-03-20T08:34:55.446Z,51.60
2019-03-20T08:37:52.668Z,51.70
2019-03-20T08:40:56.309Z,51.80
2019-03-20T08:43:51.339Z,51.60
2019-03-20T08:46:51.804Z,51.60
2019-03-20T08:49:57.839Z,51.60
2019-03-20T08:52:54.224Z,51.60
2019-03-20T08:55:51.728Z,51.60
2019-03-20T08:58:49.396Z,51.40
2019-03-20T09:01:44.699Z,51.30
2019-03-20T09:04:41.479Z,51.20
2019-03-20T09:07:46.822Z,51.20
2019-03-20T09:10:34.481Z,51.10
2019-03-20T09:13:31.403Z,51.00
2019-03-20T09:16:25.247Z,51.00
2019-03-20T09:19:19.110Z,50.90
2019-03-20T09:22:12.452Z,50.90
2019-03-20T09:25:05.617Z,51.20
2019-03-20T09:27:59.470Z,51.00
2019-03-20T09:30:51.879Z,50.90
2019-03-20T09:33:50.095Z,50.90
2019-03-20T09:36:44.133Z,50.90
2019-03-20T09:39:36.351Z,51.00
2019-03-20T09:42:28.540Z,51.00
2019-03-20T09:45:22.221Z,51.00
2019-03-20T09:48:16.731Z,50.70
2019-03-20T09:51:11.961Z,50.80
2019-03-20T09:54:05.942Z,50.90
2019-03-20T09:57:00.704Z,51.10
2019-03-20T09:59:56.319Z,51.10
2019-03-20T10:02:50.607Z,51.20
2019-03-20T10:06:12.039Z,51.10
2019-03-20T10:09:27.711Z,50.90
2019-03-20T10:12:23.961Z,50.90
2019-03-20T10:15:29.185Z,50.80
2019-03-20T10:18:25.344Z,50.80
2019-03-20T10:21:18.006Z,50.90
2019-03-20T10:24:13.024Z,50.70
2019-03-20T10:27:10.043Z,50.60
2019-03-20T10:30:07.769Z,50.60
2019-03-20T10:33:02.905Z,50.50
2019-03-20T10:36:03.101Z,50.50
2019-03-20T10:39:06.327Z,50.50
2019-03-20T10:41:55.123Z,50.50
2019-03-20T10:44:50.142Z,50.50
2019-03-20T10:47:45.977Z,50.70
2019-03-20T10:50:39.653Z,50.60
2019-03-20T10:53:36.873Z,50.70
2019-03-20T10:56:29.655Z,50.70
2019-03-20T10:59:21.866Z,50.70
2019-03-20T11:02:14.280Z,50.80
2019-03-20T11:05:06.937Z,51.00
2019-03-20T11:07:59.470Z,51.00
2019-03-20T11:10:52.373Z,51.10
2019-03-20T11:13:47.239Z,51.20
2019-03-20T11:16:39.525Z,51.20
2019-03-20T11:19:33.511Z,51.20
2019-03-20T11:22:26.126Z,51.20
2019-03-20T11:25:20.114Z,51.30
2019-03-20T11:28:12.536Z,51.40
2019-03-20T11:31:27.037Z,51.00
2019-03-20T11:34:20.786Z,51.30
2019-03-20T11:37:24.452Z,51.40
2019-03-20T11:40:34.261Z,51.60
2019-03-20T11:43:47.881Z,50.80
2019-03-20T11:46:43.305Z,50.60
2019-03-20T11:49:44.066Z,50.70
2019-03-20T11:52:44.156Z,50.80
2019-03-20T11:55:43.362Z,50.60
2019-03-20T11:58:51.365Z,51.30
2019-03-20T12:01:57.295Z,51.70
2019-03-20T12:05:03.970Z,51.60
2019-03-20T12:08:10.064Z,52.10
2019-03-20T12:11:15.780Z,52.90
2019-03-20T12:14:19.169Z,51.80
2019-03-20T12:17:20.677Z,52.50
2019-03-20T12:20:25.848Z,52.00
2019-03-20T12:23:23.561Z,52.20
2019-03-20T12:26:17.229Z,52.30
2019-03-20T12:29:10.404Z,52.60
2019-03-20T12:32:04.677Z,52.60
2019-03-20T12:35:01.029Z,52.80
2019-03-20T12:37:54.857Z,52.90
2019-03-20T12:40:52.847Z,53.20
2019-03-20T12:43:48.092Z,53.40
2019-03-20T12:46:42.013Z,53.30
2019-03-20T12:49:37.560Z,53.70
2019-03-20T12:52:40.003Z,53.10
2019-03-20T12:55:41.346Z,53.50
2019-03-20T12:58:36.790Z,53.00
2019-03-20T13:01:34.839Z,53.00
2019-03-20T13:04:28.829Z,53.10
2019-03-20T13:07:21.487Z,53.00
2019-03-20T13:10:14.956Z,53.10
2019-03-20T13:13:07.015Z,53.30
2019-03-20T13:16:00.318Z,53.40
2019-03-20T13:18:52.001Z,53.60
2019-03-20T13:21:44.674Z,54.10
2019-03-20T13:24:37.189Z,54.60
2019-03-20T13:27:30.401Z,54.20
2019-03-20T13:30:29.595Z,54.20
2019-03-20T13:33:25.922Z,54.20
2019-03-20T13:36:19.990Z,54.60
2019-03-20T13:39:13.362Z,54.40
2019-03-20T13:42:08.678Z,54.20
2019-03-20T13:45:02.436Z,54.10
2019-03-20T13:47:56.128Z,54.70
2019-03-20T13:50:50.871Z,54.70
2019-03-20T13:53:43.927Z,55.20
2019-03-20T13:56:38.221Z,55.20
2019-03-20T13:59:31.355Z,55.30
2019-03-20T14:02:25.761Z,55.20
2019-03-20T14:05:18.641Z,55.20
2019-03-20T14:08:11.103Z,55.00
2019-03-20T14:11:06.196Z,55.10
2019-03-20T14:14:01.389Z,55.40
2019-03-20T14:16:54.257Z,55.40
2019-03-20T14:19:48.869Z,55.40
2019-03-20T14:22:42.326Z,55.60
2019-03-20T14:25:36.665Z,55.60
2019-03-20T14:28:30.271Z,55.60
2019-03-20T14:31:23.779Z,55.60
2019-03-20T14:34:16.967Z,55.80
2019-03-20T14:37:10.314Z,55.60
2019-03-20T14:40:03.151Z,55.50
2019-03-20T14:42:57.044Z,55.60
2019-03-20T14:45:50.498Z,55.50
2019-03-20T14:48:43.008Z,55.50
2019-03-20T14:51:36.569Z,55.40
2019-03-20T14:54:29.854Z,55.70
2019-03-20T14:57:24.186Z,55.40
2019-03-20T15:00:24.673Z,55.30
2019-03-20T15:03:18.203Z,55.30
2019-03-20T15:06:11.327Z,55.30
2019-03-20T15:09:06.567Z,55.20
2019-03-20T15:11:59.866Z,55.00
2019-03-20T15:14:52.890Z,55.10
2019-03-20T15:17:45.487Z,54.90
2019-03-20T15:20:39.679Z,55.00
2019-03-20T15:23:32.741Z,54.90
2019-03-20T15:26:26.074Z,54.90
2019-03-20T15:29:18.686Z,54.90
2019-03-20T15:32:12.750Z,54.80
2019-03-20T15:35:06.134Z,54.90
2019-03-20T15:38:00.324Z,54.80
2019-03-20T15:40:56.376Z,54.70
2019-03-20T15:43:48.415Z,54.70
2019-03-20T15:46:42.434Z,54.70
2019-03-20T15:49:37.075Z,54.80
2019-03-20T15:52:30.215Z,54.90
2019-03-20T15:55:27.469Z,54.80
2019-03-20T15:58:20.091Z,54.90
2019-03-20T16:01:14.160Z,54.70
2019-03-20T16:04:07.672Z,54.70
2019-03-20T16:07:01.048Z,54.70
2019-03-20T16:09:53.785Z,54.70
2019-03-20T16:12:49.585Z,54.80
2019-03-20T16:15:42.621Z,55.00
2019-03-20T16:18:35.300Z,55.00
2019-03-20T16:21:28.345Z,55.00
2019-03-20T16:24:21.613Z,54.90
2019-03-20T16:27:17.325Z,54.70
2019-03-20T16:30:13.456Z,54.70
2019-03-20T16:33:06.847Z,54.60
2019-03-20T16:36:01.608Z,54.60
2019-03-20T16:38:54.760Z,54.60
2019-03-20T16:41:47.634Z,54.60
2019-03-20T16:44:40.929Z,54.50
2019-03-20T16:47:33.832Z,54.50
2019-03-20T16:50:26.531Z,54.50
2019-03-20T16:53:19.666Z,54.60
2019-03-20T16:56:12.402Z,54.80
2019-03-20T16:59:05.413Z,54.70
2019-03-20T17:02:00.060Z,55.00
2019-03-20T17:04:54.031Z,54.80
2019-03-20T17:07:48.964Z,55.30
2019-03-20T17:10:42.489Z,55.60
2019-03-20T17:13:35.487Z,56.00
2019-03-20T17:16:29.785Z,55.80
2019-03-20T17:19:23.925Z,55.70
2019-03-20T17:22:17.261Z,56.10
2019-03-20T17:25:11.707Z,56.00
2019-03-20T17:28:06.873Z,56.40
2019-03-20T17:31:00.186Z,56.60
2019-03-20T17:33:53.669Z,56.60
2019-03-20T17:36:47.834Z,56.60
2019-03-20T17:39:40.950Z,56.70
2019-03-20T17:42:35.536Z,56.80
2019-03-20T17:45:29.626Z,57.30
2019-03-20T17:48:24.597Z,56.80
2019-03-20T17:51:17.506Z,56.70
2019-03-20T17:54:10.932Z,56.50
2019-03-20T17:57:04.655Z,56.40
2019-03-20T17:59:58.070Z,56.80
2019-03-20T18:02:52.946Z,56.10
2019-03-20T18:05:47.154Z,56.20
2019-03-20T18:08:41.998Z,56.10
2019-03-20T18:11:35.308Z,56.00
2019-03-20T18:14:28.192Z,56.00
2019-03-20T18:17:21.771Z,56.20
2019-03-20T18:20:15.209Z,56.20
2019-03-20T18:23:08.551Z,56.30
2019-03-20T18:26:01.350Z,56.30
2019-03-20T18:28:54.674Z,56.20
2019-03-20T18:31:47.288Z,56.10
2019-03-20T18:34:40.537Z,56.40
2019-03-20T18:37:33.553Z,57.00
2019-03-20T18:43:28.475Z,57.90
2019-03-20T18:46:20.928Z,57.90
2019-03-20T18:49:13.322Z,57.80
2019-03-20T18:52:05.757Z,57.50
2019-03-20T18:54:58.272Z,57.20
2019-03-20T18:57:51.122Z,57.00
2019-03-20T19:00:43.533Z,57.00
2019-03-20T19:03:36.106Z,56.70
2019-03-20T19:06:29.134Z,56.50
2019-03-20T19:09:21.346Z,56.10
2019-03-20T19:12:14.791Z,56.40
2019-03-20T19:15:06.925Z,57.00
2019-03-20T19:17:58.979Z,56.70
2019-03-20T19:20:51.187Z,56.70
2019-03-20T19:23:43.710Z,56.80
2019-03-20T19:26:35.958Z,57.00
2019-03-20T19:29:28.137Z,56.90
2019-03-20T19:32:20.326Z,56.90
2019-03-20T19:35:13.375Z,57.50
2019-03-20T19:38:05.814Z,57.20
2019-03-20T19:40:57.879Z,57.10
2019-03-20T19:43:49.992Z,57.10
2019-03-20T19:46:42.130Z,57.30
2019-03-20T19:49:34.767Z,58.00
2019-03-20T19:52:27.017Z,57.30
2019-03-20T19:55:18.909Z,57.40
2019-03-20T19:58:11.162Z,57.20
2019-03-20T20:01:02.794Z,57.20
2019-03-20T20:03:54.997Z,57.30
2019-03-20T20:06:47.136Z,57.30
2019-03-20T20:09:39.145Z,57.30
2019-03-20T20:12:31.730Z,57.40
2019-03-20T20:15:24.700Z,57.30
2019-03-20T20:18:16.619Z,57.70
2019-03-20T20:21:08.906Z,57.90
2019-03-20T20:24:01.438Z,57.60
2019-03-20T20:26:53.571Z,57.60
2019-03-20T20:29:45.962Z,57.70
2019-03-20T20:32:38.510Z,57.90
2019-03-20T20:35:30.905Z,57.70
2019-03-20T20:38:23.167Z,57.60
2019-03-20T20:41:15.684Z,57.80
2019-03-20T20:44:07.567Z,57.40
2019-03-20T20:46:59.958Z,57.30
2019-03-20T20:49:52.051Z,57.30
2019-03-20T20:52:44.131Z,57.30
2019-03-20T20:55:36.171Z,57.40
2019-03-20T20:58:28.151Z,57.20
2019-03-20T21:01:20.084Z,57.30
2019-03-20T21:04:12.297Z,57.50
2019-03-20T21:07:04.296Z,57.50
2019-03-20T21:09:56.154Z,57.50
2019-03-20T21:12:56.125Z,57.80
2019-03-20T21:15:43.191Z,57.90
2019-03-20T21:19:08.808Z,57.80
2019-03-20T21:22:24.882Z,57.70
2019-03-20T21:25:21.326Z,57.60
2019-03-20T21:28:32.663Z,57.50
2019-03-20T21:31:28.750Z,57.40
2019-03-20T21:34:45.983Z,57.30
2019-03-20T21:37:55.099Z,57.50
2019-03-20T21:41:14.355Z,57.60
2019-03-20T21:44:23.306Z,58.00
2019-03-20T21:47:33.354Z,58.10
2019-03-20T21:50:44.889Z,58.50
2019-03-20T21:53:43.424Z,58.70
2019-03-20T21:56:38.706Z,58.70
2019-03-20T21:59:38.508Z,58.60
2019-03-20T22:02:46.693Z,58.60
2019-03-20T22:05:55.609Z,58.50
2019-03-20T22:08:48.010Z,58.60
2019-03-20T22:11:57.071Z,58.60
2019-03-20T22:14:51.265Z,58.50
2019-03-20T22:17:58.666Z,58.30
2019-03-20T22:20:57.268Z,58.40
2019-03-20T22:24:06.450Z,58.50
2019-03-20T22:27:22.787Z,58.40
2019-03-20T22:30:15.139Z,58.40
2019-03-20T22:33:23.891Z,57.90
2019-03-20T22:36:24.056Z,57.90
2019-03-20T22:39:37.231Z,57.80
2019-03-20T22:42:32.541Z,57.90
2019-03-20T22:45:52.285Z,57.80
2019-03-20T22:48:52.272Z,58.10
2019-03-20T22:52:05.892Z,58.00
2019-03-20T22:55:17.254Z,58.10
2019-03-20T22:58:24.947Z,58.00
2019-03-20T23:01:28.620Z,58.00
2019-03-20T23:04:23.031Z,57.80
2019-03-20T23:07:15.249Z,57.80
2019-03-20T23:10:08.290Z,57.90
2019-03-20T23:13:00.988Z,58.00
2019-03-20T23:15:53.577Z,57.80
2019-03-20T23:18:45.967Z,57.60
2019-03-20T23:21:38.495Z,57.70
2019-03-20T23:24:30.944Z,57.60
2019-03-20T23:27:27.961Z,57.60
2019-03-20T23:30:21.937Z,57.80
2019-03-20T23:33:14.643Z,58.00
2019-03-20T23:36:07.522Z,57.90
2019-03-20T23:39:00.075Z,57.80
2019-03-20T23:41:53.297Z,57.50
2019-03-20T23:44:45.630Z,57.40
2019-03-20T23:47:46.930Z,57.50
2019-03-20T23:50:40.308Z,57.60
2019-03-20T23:53:32.881Z,57.40
2019-03-20T23:56:26.441Z,57.30
2019-03-20T23:59:18.906Z,57.40
